sensor_id;sensor_type;location;lat;lon;timestamp;P1;durP1;ratioP1;P2;durP2;ratioP2
26588;SDS011;14235;48.532;8.722;2022-11-15T00:00:51;9.10;;;7.57;;
26588;SDS011;14235;48.532;8.722;2022-11-15T00:03:18;9.15;;;7.95;;
26588;SDS011;14235;48.532;8.722;2022-11-15T00:05:46;12.27;;;8.90;;
26588;SDS011;14235;48.532;8.722;2022-11-15T00:08:12;12.20;;;10.02;;
26588;SDS011;14235;48.532;8.722;2022-11-15T00:10:38;10.70;;;8.82;;
26588;SDS011;14235;48.532;8.722;2022-11-15T00:13:04;11.98;;;9.77;;
26588;SDS011;14235;48.532;8.722;2022-11-15T00:15:37;10.13;;;8.80;;
26588;SDS011;14235;48.532;8.722;2022-11-15T00:18:04;10.25;;;9.15;;
26588;SDS011;14235;48.532;8.722;2022-11-15T00:20:31;8.27;;;7.40;;
26588;SDS011;14235;48.532;8.722;2022-11-15T00:22:58;10.63;;;7.32;;
26588;SDS011;14235;48.532;8.722;2022-11-15T00:25:24;9.23;;;6.80;;
26588;SDS011;14235;48.532;8.722;2022-11-15T00:27:50;6.97;;;6.38;;
26588;SDS011;14235;48.532;8.722;2022-11-15T00:30:16;5.97;;;5.45;;
26588;SDS011;14235;48.532;8.722;2022-11-15T00:32:42;6.07;;;5.10;;
26588;SDS011;14235;48.532;8.722;2022-11-15T00:35:08;8.13;;;5.93;;
26588;SDS011;14235;48.532;8.722;2022-11-15T00:37:33;6.90;;;5.85;;
26588;SDS011;14235;48.532;8.722;2022-11-15T00:39:59;7.68;;;5.93;;
26588;SDS011;14235;48.532;8.722;2022-11-15T00:42:24;6.70;;;5.60;;
26588;SDS011;14235;48.532;8.722;2022-11-15T00:44:50;6.15;;;5.15;;
26588;SDS011;14235;48.532;8.722;2022-11-15T00:47:15;5.75;;;5.25;;
26588;SDS011;14235;48.532;8.722;2022-11-15T00:49:41;7.05;;;5.78;;
26588;SDS011;14235;48.532;8.722;2022-11-15T00:52:07;5.93;;;5.38;;
26588;SDS011;14235;48.532;8.722;2022-11-15T00:54:32;8.18;;;5.63;;
26588;SDS011;14235;48.532;8.722;2022-11-15T00:56:58;6.03;;;5.35;;
26588;SDS011;14235;48.532;8.722;2022-11-15T00:59:23;6.30;;;5.30;;
26588;SDS011;14235;48.532;8.722;2022-11-15T01:01:49;5.65;;;5.15;;
26588;SDS011;14235;48.532;8.722;2022-11-15T01:04:14;5.25;;;4.75;;
26588;SDS011;14235;48.532;8.722;2022-11-15T01:06:40;6.10;;;5.10;;
26588;SDS011;14235;48.532;8.722;2022-11-15T01:09:05;6.00;;;4.93;;
26588;SDS011;14235;48.532;8.722;2022-11-15T01:11:31;5.22;;;4.65;;
26588;SDS011;14235;48.532;8.722;2022-11-15T01:13:57;5.00;;;4.60;;
26588;SDS011;14235;48.532;8.722;2022-11-15T01:16:22;5.35;;;4.82;;
26588;SDS011;14235;48.532;8.722;2022-11-15T01:18:48;5.72;;;4.80;;
26588;SDS011;14235;48.532;8.722;2022-11-15T01:21:14;6.32;;;4.75;;
26588;SDS011;14235;48.532;8.722;2022-11-15T01:23:42;5.03;;;4.50;;
26588;SDS011;14235;48.532;8.722;2022-11-15T01:26:10;5.30;;;4.80;;
26588;SDS011;14235;48.532;8.722;2022-11-15T01:28:38;5.18;;;4.38;;
26588;SDS011;14235;48.532;8.722;2022-11-15T01:31:05;4.72;;;4.32;;
26588;SDS011;14235;48.532;8.722;2022-11-15T01:33:36;5.47;;;4.75;;
26588;SDS011;14235;48.532;8.722;2022-11-15T01:36:09;5.72;;;4.20;;
26588;SDS011;14235;48.532;8.722;2022-11-15T01:38:40;5.10;;;4.25;;
26588;SDS011;14235;48.532;8.722;2022-11-15T01:41:06;4.65;;;4.22;;
26588;SDS011;14235;48.532;8.722;2022-11-15T01:43:33;5.53;;;4.20;;
26588;SDS011;14235;48.532;8.722;2022-11-15T01:46:02;6.45;;;4.32;;
26588;SDS011;14235;48.532;8.722;2022-11-15T01:48:50;6.43;;;4.25;;
26588;SDS011;14235;48.532;8.722;2022-11-15T01:51:18;7.22;;;4.60;;
26588;SDS011;14235;48.532;8.722;2022-11-15T01:53:47;4.80;;;4.40;;
26588;SDS011;14235;48.532;8.722;2022-11-15T01:56:18;5.43;;;4.70;;
26588;SDS011;14235;48.532;8.722;2022-11-15T01:58:48;5.00;;;4.25;;
26588;SDS011;14235;48.532;8.722;2022-11-15T02:01:14;5.18;;;4.60;;
26588;SDS011;14235;48.532;8.722;2022-11-15T02:03:44;5.28;;;4.53;;
26588;SDS011;14235;48.532;8.722;2022-11-15T02:06:16;4.63;;;4.22;;
26588;SDS011;14235;48.532;8.722;2022-11-15T02:08:42;4.63;;;4.22;;
26588;SDS011;14235;48.532;8.722;2022-11-15T02:11:09;4.72;;;4.30;;
26588;SDS011;14235;48.532;8.722;2022-11-15T02:13:35;5.32;;;4.65;;
26588;SDS011;14235;48.532;8.722;2022-11-15T02:16:05;4.32;;;3.92;;
26588;SDS011;14235;48.532;8.722;2022-11-15T02:18:42;5.05;;;4.20;;
26588;SDS011;14235;48.532;8.722;2022-11-15T02:29:32;6.07;;;4.18;;
26588;SDS011;14235;48.532;8.722;2022-11-15T02:32:25;5.43;;;4.30;;
26588;SDS011;14235;48.532;8.722;2022-11-15T02:35:11;5.63;;;4.28;;
26588;SDS011;14235;48.532;8.722;2022-11-15T02:37:54;6.40;;;4.07;;
26588;SDS011;14235;48.532;8.722;2022-11-15T02:43:17;6.55;;;4.32;;
26588;SDS011;14235;48.532;8.722;2022-11-15T02:46:17;5.90;;;4.60;;
26588;SDS011;14235;48.532;8.722;2022-11-15T02:49:08;4.50;;;3.78;;
26588;SDS011;14235;48.532;8.722;2022-11-15T02:51:36;5.95;;;4.18;;
26588;SDS011;14235;48.532;8.722;2022-11-15T02:54:02;6.43;;;4.35;;
26588;SDS011;14235;48.532;8.722;2022-11-15T02:56:27;5.03;;;4.07;;
26588;SDS011;14235;48.532;8.722;2022-11-15T03:01:51;4.47;;;4.07;;
26588;SDS011;14235;48.532;8.722;2022-11-15T03:09:46;4.43;;;4.00;;
26588;SDS011;14235;48.532;8.722;2022-11-15T03:15:06;5.57;;;4.22;;
26588;SDS011;14235;48.532;8.722;2022-11-15T03:17:43;5.35;;;4.35;;
26588;SDS011;14235;48.532;8.722;2022-11-15T03:20:29;4.38;;;4.00;;
26588;SDS011;14235;48.532;8.722;2022-11-15T03:23:06;5.10;;;3.97;;
26588;SDS011;14235;48.532;8.722;2022-11-15T03:25:34;4.32;;;3.88;;
26588;SDS011;14235;48.532;8.722;2022-11-15T03:28:05;4.22;;;3.83;;
26588;SDS011;14235;48.532;8.722;2022-11-15T03:30:34;6.50;;;4.47;;
26588;SDS011;14235;48.532;8.722;2022-11-15T03:33:02;4.72;;;4.25;;
26588;SDS011;14235;48.532;8.722;2022-11-15T03:35:30;6.00;;;4.10;;
26588;SDS011;14235;48.532;8.722;2022-11-15T03:40:40;4.57;;;4.07;;
26588;SDS011;14235;48.532;8.722;2022-11-15T03:43:10;4.72;;;4.18;;
26588;SDS011;14235;48.532;8.722;2022-11-15T03:45:51;3.90;;;3.58;;
26588;SDS011;14235;48.532;8.722;2022-11-15T03:48:24;3.83;;;3.53;;
26588;SDS011;14235;48.532;8.722;2022-11-15T03:50:55;4.70;;;4.00;;
26588;SDS011;14235;48.532;8.722;2022-11-15T03:53:21;6.80;;;4.65;;
26588;SDS011;14235;48.532;8.722;2022-11-15T03:55:47;4.45;;;4.05;;
26588;SDS011;14235;48.532;8.722;2022-11-15T03:58:12;5.25;;;4.38;;
26588;SDS011;14235;48.532;8.722;2022-11-15T04:00:38;5.47;;;4.18;;
26588;SDS011;14235;48.532;8.722;2022-11-15T04:03:03;5.78;;;4.18;;
26588;SDS011;14235;48.532;8.722;2022-11-15T04:05:29;5.10;;;4.13;;
26588;SDS011;14235;48.532;8.722;2022-11-15T04:07:55;4.68;;;4.03;;
26588;SDS011;14235;48.532;8.722;2022-11-15T04:10:20;5.40;;;4.00;;
26588;SDS011;14235;48.532;8.722;2022-11-15T04:12:46;7.47;;;4.32;;
26588;SDS011;14235;48.532;8.722;2022-11-15T04:15:14;4.85;;;4.32;;
26588;SDS011;14235;48.532;8.722;2022-11-15T04:20:12;4.57;;;4.18;;
26588;SDS011;14235;48.532;8.722;2022-11-15T04:22:58;4.10;;;3.70;;
26588;SDS011;14235;48.532;8.722;2022-11-15T04:25:44;4.95;;;4.47;;
26588;SDS011;14235;48.532;8.722;2022-11-15T04:28:11;4.53;;;4.10;;
26588;SDS011;14235;48.532;8.722;2022-11-15T04:30:37;4.68;;;4.15;;
26588;SDS011;14235;48.532;8.722;2022-11-15T04:33:03;5.82;;;4.43;;
26588;SDS011;14235;48.532;8.722;2022-11-15T04:35:28;5.88;;;4.38;;
26588;SDS011;14235;48.532;8.722;2022-11-15T04:37:55;4.53;;;4.13;;
26588;SDS011;14235;48.532;8.722;2022-11-15T04:40:22;7.28;;;4.65;;
26588;SDS011;14235;48.532;8.722;2022-11-15T04:42:48;5.78;;;4.15;;
26588;SDS011;14235;48.532;8.722;2022-11-15T04:45:13;5.18;;;4.10;;
26588;SDS011;14235;48.532;8.722;2022-11-15T04:47:39;6.57;;;4.10;;
26588;SDS011;14235;48.532;8.722;2022-11-15T04:50:05;4.38;;;3.97;;
26588;SDS011;14235;48.532;8.722;2022-11-15T04:52:31;4.20;;;3.85;;
26588;SDS011;14235;48.532;8.722;2022-11-15T04:54:56;4.85;;;4.18;;
26588;SDS011;14235;48.532;8.722;2022-11-15T04:57:22;6.40;;;4.18;;
26588;SDS011;14235;48.532;8.722;2022-11-15T04:59:48;4.78;;;3.95;;
26588;SDS011;14235;48.532;8.722;2022-11-15T05:02:13;4.30;;;3.92;;
26588;SDS011;14235;48.532;8.722;2022-11-15T05:04:39;4.50;;;4.10;;
26588;SDS011;14235;48.532;8.722;2022-11-15T05:07:04;4.15;;;3.75;;
26588;SDS011;14235;48.532;8.722;2022-11-15T05:09:30;6.30;;;4.03;;
26588;SDS011;14235;48.532;8.722;2022-11-15T05:11:55;4.85;;;4.32;;
26588;SDS011;14235;48.532;8.722;2022-11-15T05:14:21;4.63;;;4.22;;
26588;SDS011;14235;48.532;8.722;2022-11-15T05:16:47;5.45;;;3.60;;
26588;SDS011;14235;48.532;8.722;2022-11-15T05:19:12;4.28;;;3.88;;
26588;SDS011;14235;48.532;8.722;2022-11-15T05:21:38;4.20;;;3.80;;
26588;SDS011;14235;48.532;8.722;2022-11-15T05:24:04;5.22;;;4.70;;
26588;SDS011;14235;48.532;8.722;2022-11-15T05:26:30;8.18;;;4.47;;
26588;SDS011;14235;48.532;8.722;2022-11-15T05:28:56;4.68;;;4.18;;
26588;SDS011;14235;48.532;8.722;2022-11-15T05:31:23;5.22;;;4.35;;
26588;SDS011;14235;48.532;8.722;2022-11-15T05:33:50;5.63;;;4.22;;
26588;SDS011;14235;48.532;8.722;2022-11-15T05:36:34;5.22;;;4.20;;
26588;SDS011;14235;48.532;8.722;2022-11-15T05:39:06;6.07;;;4.90;;
26588;SDS011;14235;48.532;8.722;2022-11-15T05:41:45;4.50;;;4.10;;
26588;SDS011;14235;48.532;8.722;2022-11-15T05:44:25;5.55;;;4.75;;
26588;SDS011;14235;48.532;8.722;2022-11-15T05:46:52;5.65;;;4.70;;
26588;SDS011;14235;48.532;8.722;2022-11-15T05:49:21;5.25;;;4.75;;
26588;SDS011;14235;48.532;8.722;2022-11-15T05:51:49;5.70;;;4.68;;
26588;SDS011;14235;48.532;8.722;2022-11-15T05:54:17;5.63;;;4.70;;
26588;SDS011;14235;48.532;8.722;2022-11-15T05:56:47;7.85;;;4.65;;
26588;SDS011;14235;48.532;8.722;2022-11-15T05:59:14;4.47;;;4.18;;
26588;SDS011;14235;48.532;8.722;2022-11-15T06:01:40;4.80;;;4.05;;
26588;SDS011;14235;48.532;8.722;2022-11-15T06:04:06;4.95;;;4.45;;
26588;SDS011;14235;48.532;8.722;2022-11-15T06:06:32;4.90;;;4.32;;
26588;SDS011;14235;48.532;8.722;2022-11-15T06:08:58;7.00;;;5.22;;
26588;SDS011;14235;48.532;8.722;2022-11-15T06:11:23;4.50;;;4.10;;
26588;SDS011;14235;48.532;8.722;2022-11-15T06:13:49;7.93;;;4.93;;
26588;SDS011;14235;48.532;8.722;2022-11-15T06:16:14;10.30;;;7.95;;
26588;SDS011;14235;48.532;8.722;2022-11-15T06:18:40;15.52;;;11.30;;
26588;SDS011;14235;48.532;8.722;2022-11-15T06:21:06;10.75;;;8.80;;
26588;SDS011;14235;48.532;8.722;2022-11-15T06:23:31;9.18;;;6.95;;
26588;SDS011;14235;48.532;8.722;2022-11-15T06:25:59;5.32;;;4.82;;
26588;SDS011;14235;48.532;8.722;2022-11-15T06:28:29;4.82;;;4.22;;
26588;SDS011;14235;48.532;8.722;2022-11-15T06:30:55;6.70;;;5.18;;
26588;SDS011;14235;48.532;8.722;2022-11-15T06:33:21;7.15;;;5.90;;
26588;SDS011;14235;48.532;8.722;2022-11-15T06:35:47;7.88;;;6.63;;
26588;SDS011;14235;48.532;8.722;2022-11-15T06:38:13;5.93;;;5.30;;
26588;SDS011;14235;48.532;8.722;2022-11-15T06:40:39;6.07;;;5.22;;
26588;SDS011;14235;48.532;8.722;2022-11-15T06:43:05;9.35;;;6.50;;
26588;SDS011;14235;48.532;8.722;2022-11-15T06:45:31;8.18;;;6.22;;
26588;SDS011;14235;48.532;8.722;2022-11-15T06:47:57;6.20;;;5.60;;
26588;SDS011;14235;48.532;8.722;2022-11-15T06:50:23;6.78;;;6.13;;
26588;SDS011;14235;48.532;8.722;2022-11-15T06:52:50;7.90;;;7.10;;
26588;SDS011;14235;48.532;8.722;2022-11-15T06:55:15;7.45;;;6.85;;
26588;SDS011;14235;48.532;8.722;2022-11-15T06:57:51;7.32;;;6.22;;
26588;SDS011;14235;48.532;8.722;2022-11-15T07:00:18;5.22;;;4.72;;
26588;SDS011;14235;48.532;8.722;2022-11-15T07:02:44;5.13;;;4.18;;
26588;SDS011;14235;48.532;8.722;2022-11-15T07:05:11;7.80;;;5.35;;
26588;SDS011;14235;48.532;8.722;2022-11-15T07:07:37;5.35;;;4.85;;
26588;SDS011;14235;48.532;8.722;2022-11-15T07:10:02;5.28;;;4.32;;
26588;SDS011;14235;48.532;8.722;2022-11-15T07:12:28;6.47;;;5.10;;
26588;SDS011;14235;48.532;8.722;2022-11-15T07:14:54;7.72;;;5.28;;
26588;SDS011;14235;48.532;8.722;2022-11-15T07:17:20;6.65;;;5.82;;
26588;SDS011;14235;48.532;8.722;2022-11-15T07:19:45;6.60;;;4.72;;
26588;SDS011;14235;48.532;8.722;2022-11-15T07:22:11;5.30;;;4.80;;
26588;SDS011;14235;48.532;8.722;2022-11-15T07:24:36;5.57;;;4.95;;
26588;SDS011;14235;48.532;8.722;2022-11-15T07:27:02;5.15;;;4.60;;
26588;SDS011;14235;48.532;8.722;2022-11-15T07:29:27;4.88;;;4.47;;
26588;SDS011;14235;48.532;8.722;2022-11-15T07:31:53;5.55;;;4.68;;
26588;SDS011;14235;48.532;8.722;2022-11-15T07:34:19;4.78;;;4.38;;
26588;SDS011;14235;48.532;8.722;2022-11-15T07:36:44;5.28;;;4.78;;
26588;SDS011;14235;48.532;8.722;2022-11-15T07:39:10;6.03;;;4.75;;
26588;SDS011;14235;48.532;8.722;2022-11-15T07:41:37;4.88;;;4.45;;
26588;SDS011;14235;48.532;8.722;2022-11-15T07:44:03;5.57;;;5.07;;
26588;SDS011;14235;48.532;8.722;2022-11-15T07:46:29;5.07;;;4.60;;
26588;SDS011;14235;48.532;8.722;2022-11-15T07:48:56;5.30;;;4.80;;
26588;SDS011;14235;48.532;8.722;2022-11-15T07:51:21;5.88;;;4.50;;
26588;SDS011;14235;48.532;8.722;2022-11-15T07:53:47;5.53;;;5.03;;
26588;SDS011;14235;48.532;8.722;2022-11-15T07:56:12;5.22;;;4.75;;
26588;SDS011;14235;48.532;8.722;2022-11-15T07:58:38;5.00;;;4.55;;
26588;SDS011;14235;48.532;8.722;2022-11-15T08:01:08;5.35;;;4.43;;
26588;SDS011;14235;48.532;8.722;2022-11-15T08:03:34;4.70;;;4.28;;
26588;SDS011;14235;48.532;8.722;2022-11-15T08:06:01;4.93;;;4.40;;
26588;SDS011;14235;48.532;8.722;2022-11-15T08:08:27;5.70;;;4.57;;
26588;SDS011;14235;48.532;8.722;2022-11-15T08:10:53;5.90;;;5.00;;
26588;SDS011;14235;48.532;8.722;2022-11-15T08:13:19;7.55;;;6.10;;
26588;SDS011;14235;48.532;8.722;2022-11-15T08:15:46;8.43;;;5.35;;
26588;SDS011;14235;48.532;8.722;2022-11-15T08:18:12;5.70;;;5.13;;
26588;SDS011;14235;48.532;8.722;2022-11-15T08:20:39;7.43;;;5.78;;
26588;SDS011;14235;48.532;8.722;2022-11-15T08:23:05;6.30;;;5.47;;
26588;SDS011;14235;48.532;8.722;2022-11-15T08:25:33;7.60;;;6.18;;
26588;SDS011;14235;48.532;8.722;2022-11-15T08:28:00;10.27;;;7.30;;
26588;SDS011;14235;48.532;8.722;2022-11-15T08:30:28;7.30;;;6.38;;
26588;SDS011;14235;48.532;8.722;2022-11-15T08:32:55;7.22;;;6.40;;
26588;SDS011;14235;48.532;8.722;2022-11-15T08:35:22;6.20;;;5.60;;
26588;SDS011;14235;48.532;8.722;2022-11-15T08:37:48;6.50;;;5.90;;
26588;SDS011;14235;48.532;8.722;2022-11-15T08:40:14;7.68;;;6.50;;
26588;SDS011;14235;48.532;8.722;2022-11-15T08:42:40;10.70;;;6.90;;
26588;SDS011;14235;48.532;8.722;2022-11-15T08:45:06;10.18;;;6.30;;
26588;SDS011;14235;48.532;8.722;2022-11-15T08:47:33;7.43;;;6.72;;
26588;SDS011;14235;48.532;8.722;2022-11-15T08:49:59;6.75;;;6.15;;
26588;SDS011;14235;48.532;8.722;2022-11-15T08:52:25;9.38;;;6.50;;
26588;SDS011;14235;48.532;8.722;2022-11-15T08:54:51;5.65;;;5.13;;
26588;SDS011;14235;48.532;8.722;2022-11-15T08:57:16;6.93;;;6.03;;
26588;SDS011;14235;48.532;8.722;2022-11-15T08:59:42;6.22;;;5.60;;
26588;SDS011;14235;48.532;8.722;2022-11-15T09:02:14;6.72;;;5.45;;
26588;SDS011;14235;48.532;8.722;2022-11-15T09:04:40;7.65;;;6.43;;
26588;SDS011;14235;48.532;8.722;2022-11-15T09:07:07;8.95;;;6.15;;
26588;SDS011;14235;48.532;8.722;2022-11-15T09:09:34;6.90;;;6.20;;
26588;SDS011;14235;48.532;8.722;2022-11-15T09:11:59;7.82;;;6.20;;
26588;SDS011;14235;48.532;8.722;2022-11-15T09:14:25;6.53;;;5.82;;
26588;SDS011;14235;48.532;8.722;2022-11-15T09:16:50;6.78;;;6.07;;
26588;SDS011;14235;48.532;8.722;2022-11-15T09:19:16;6.45;;;5.05;;
26588;SDS011;14235;48.532;8.722;2022-11-15T09:21:41;5.72;;;5.20;;
26588;SDS011;14235;48.532;8.722;2022-11-15T09:24:07;6.57;;;5.22;;
26588;SDS011;14235;48.532;8.722;2022-11-15T09:26:33;5.68;;;4.40;;
26588;SDS011;14235;48.532;8.722;2022-11-15T09:29:01;7.43;;;5.55;;
26588;SDS011;14235;48.532;8.722;2022-11-15T09:31:27;6.55;;;5.80;;
26588;SDS011;14235;48.532;8.722;2022-11-15T09:33:54;5.78;;;5.15;;
26588;SDS011;14235;48.532;8.722;2022-11-15T09:36:19;8.18;;;5.38;;
26588;SDS011;14235;48.532;8.722;2022-11-15T09:38:45;6.65;;;5.00;;
26588;SDS011;14235;48.532;8.722;2022-11-15T09:47:48;6.20;;;5.57;;
26588;SDS011;14235;48.532;8.722;2022-11-15T09:49:58;8.32;;;6.13;;
26588;SDS011;14235;48.532;8.722;2022-11-15T09:52:25;6.30;;;5.68;;
26588;SDS011;14235;48.532;8.722;2022-11-15T09:54:52;7.93;;;6.05;;
26588;SDS011;14235;48.532;8.722;2022-11-15T10:05:30;8.18;;;6.15;;
26588;SDS011;14235;48.532;8.722;2022-11-15T10:11:11;5.95;;;5.38;;
26588;SDS011;14235;48.532;8.722;2022-11-15T10:13:46;6.90;;;6.20;;
26588;SDS011;14235;48.532;8.722;2022-11-15T10:16:37;6.93;;;5.78;;
26588;SDS011;14235;48.532;8.722;2022-11-15T10:19:23;6.95;;;5.60;;
26588;SDS011;14235;48.532;8.722;2022-11-15T10:24:39;6.97;;;5.80;;
26588;SDS011;14235;48.532;8.722;2022-11-15T10:27:08;6.22;;;5.18;;
26588;SDS011;14235;48.532;8.722;2022-11-15T10:29:42;7.75;;;5.93;;
26588;SDS011;14235;48.532;8.722;2022-11-15T10:32:10;6.60;;;6.00;;
26588;SDS011;14235;48.532;8.722;2022-11-15T10:34:36;6.88;;;5.82;;
26588;SDS011;14235;48.532;8.722;2022-11-15T10:37:02;6.72;;;5.88;;
26588;SDS011;14235;48.532;8.722;2022-11-15T10:39:28;6.32;;;5.20;;
26588;SDS011;14235;48.532;8.722;2022-11-15T10:41:54;8.93;;;5.78;;
26588;SDS011;14235;48.532;8.722;2022-11-15T10:46:47;6.60;;;5.18;;
26588;SDS011;14235;48.532;8.722;2022-11-15T10:49:22;6.35;;;4.78;;
26588;SDS011;14235;48.532;8.722;2022-11-15T10:54:52;6.63;;;4.95;;
26588;SDS011;14235;48.532;8.722;2022-11-15T10:57:35;6.53;;;5.10;;
26588;SDS011;14235;48.532;8.722;2022-11-15T11:00:04;6.72;;;4.72;;
26588;SDS011;14235;48.532;8.722;2022-11-15T11:02:40;7.22;;;5.28;;
26588;SDS011;14235;48.532;8.722;2022-11-15T11:05:32;6.72;;;5.68;;
26588;SDS011;14235;48.532;8.722;2022-11-15T11:10:53;5.57;;;4.85;;
26588;SDS011;14235;48.532;8.722;2022-11-15T11:13:21;6.95;;;5.13;;
26588;SDS011;14235;48.532;8.722;2022-11-15T11:15:52;5.05;;;4.53;;
26588;SDS011;14235;48.532;8.722;2022-11-15T11:18:41;4.45;;;4.03;;
26588;SDS011;14235;48.532;8.722;2022-11-15T11:21:13;5.90;;;4.63;;
26588;SDS011;14235;48.532;8.722;2022-11-15T11:23:46;6.22;;;4.80;;
26588;SDS011;14235;48.532;8.722;2022-11-15T11:26:18;6.47;;;5.13;;
26588;SDS011;14235;48.532;8.722;2022-11-15T11:28:54;7.45;;;4.70;;
26588;SDS011;14235;48.532;8.722;2022-11-15T11:43:00;8.68;;;5.97;;
26588;SDS011;14235;48.532;8.722;2022-11-15T11:46:21;7.90;;;6.18;;
26588;SDS011;14235;48.532;8.722;2022-11-15T11:48:51;7.60;;;5.57;;
26588;SDS011;14235;48.532;8.722;2022-11-15T11:51:27;7.97;;;5.28;;
26588;SDS011;14235;48.532;8.722;2022-11-15T11:54:17;9.52;;;5.72;;
26588;SDS011;14235;48.532;8.722;2022-11-15T11:56:47;6.15;;;4.85;;
26588;SDS011;14235;48.532;8.722;2022-11-15T12:05:10;6.97;;;5.40;;
26588;SDS011;14235;48.532;8.722;2022-11-15T12:07:40;7.63;;;5.20;;
26588;SDS011;14235;48.532;8.722;2022-11-15T12:12:38;8.07;;;4.30;;
26588;SDS011;14235;48.532;8.722;2022-11-15T12:15:31;3.60;;;3.30;;
26588;SDS011;14235;48.532;8.722;2022-11-15T12:18:02;4.05;;;3.00;;
26588;SDS011;14235;48.532;8.722;2022-11-15T12:20:38;3.67;;;2.72;;
26588;SDS011;14235;48.532;8.722;2022-11-15T12:24:11;3.28;;;2.90;;
26588;SDS011;14235;48.532;8.722;2022-11-15T12:26:09;3.70;;;2.80;;
26588;SDS011;14235;48.532;8.722;2022-11-15T12:28:50;5.22;;;3.13;;
26588;SDS011;14235;48.532;8.722;2022-11-15T12:34:12;3.38;;;2.83;;
26588;SDS011;14235;48.532;8.722;2022-11-15T12:36:58;3.40;;;3.00;;
26588;SDS011;14235;48.532;8.722;2022-11-15T12:40:02;4.03;;;2.90;;
26588;SDS011;14235;48.532;8.722;2022-11-15T12:42:38;3.58;;;2.97;;
26588;SDS011;14235;48.532;8.722;2022-11-15T12:56:34;3.58;;;3.28;;
26588;SDS011;14235;48.532;8.722;2022-11-15T13:07:04;4.53;;;3.22;;
26588;SDS011;14235;48.532;8.722;2022-11-15T13:14:40;4.93;;;3.45;;
26588;SDS011;14235;48.532;8.722;2022-11-15T13:19:57;4.25;;;3.83;;
26588;SDS011;14235;48.532;8.722;2022-11-15T13:27:56;3.88;;;3.00;;
26588;SDS011;14235;48.532;8.722;2022-11-15T13:30:23;4.10;;;3.30;;
26588;SDS011;14235;48.532;8.722;2022-11-15T13:32:51;4.28;;;3.70;;
26588;SDS011;14235;48.532;8.722;2022-11-15T13:35:25;6.82;;;3.75;;
26588;SDS011;14235;48.532;8.722;2022-11-15T13:37:53;3.95;;;3.60;;
26588;SDS011;14235;48.532;8.722;2022-11-15T13:42:55;3.60;;;3.30;;
26588;SDS011;14235;48.532;8.722;2022-11-15T13:45:21;3.83;;;3.25;;
26588;SDS011;14235;48.532;8.722;2022-11-15T13:47:51;3.80;;;3.50;;
26588;SDS011;14235;48.532;8.722;2022-11-15T13:50:19;5.65;;;3.40;;
26588;SDS011;14235;48.532;8.722;2022-11-15T13:52:47;5.20;;;3.20;;
26588;SDS011;14235;48.532;8.722;2022-11-15T13:55:15;4.40;;;3.50;;
26588;SDS011;14235;48.532;8.722;2022-11-15T14:08:37;3.53;;;3.22;;
26588;SDS011;14235;48.532;8.722;2022-11-15T14:19:01;4.10;;;3.10;;
26588;SDS011;14235;48.532;8.722;2022-11-15T14:21:27;3.35;;;2.78;;
26588;SDS011;14235;48.532;8.722;2022-11-15T14:24:13;3.20;;;3.00;;
26588;SDS011;14235;48.532;8.722;2022-11-15T14:26:43;3.33;;;3.03;;
26588;SDS011;14235;48.532;8.722;2022-11-15T14:29:22;3.80;;;3.17;;
26588;SDS011;14235;48.532;8.722;2022-11-15T14:31:48;3.40;;;2.83;;
26588;SDS011;14235;48.532;8.722;2022-11-15T14:34:14;3.80;;;3.42;;
26588;SDS011;14235;48.532;8.722;2022-11-15T14:36:39;4.88;;;3.28;;
26588;SDS011;14235;48.532;8.722;2022-11-15T14:39:05;4.47;;;3.13;;
26588;SDS011;14235;48.532;8.722;2022-11-15T14:41:33;3.55;;;3.13;;
26588;SDS011;14235;48.532;8.722;2022-11-15T14:44:02;5.65;;;3.30;;
26588;SDS011;14235;48.532;8.722;2022-11-15T14:46:28;3.17;;;2.80;;
26588;SDS011;14235;48.532;8.722;2022-11-15T14:48:54;3.70;;;2.88;;
26588;SDS011;14235;48.532;8.722;2022-11-15T14:51:20;4.72;;;3.33;;
26588;SDS011;14235;48.532;8.722;2022-11-15T14:53:45;4.35;;;3.13;;
26588;SDS011;14235;48.532;8.722;2022-11-15T14:56:12;3.92;;;3.17;;
26588;SDS011;14235;48.532;8.722;2022-11-15T14:58:38;7.50;;;3.63;;
26588;SDS011;14235;48.532;8.722;2022-11-15T15:03:56;4.13;;;3.10;;
26588;SDS011;14235;48.532;8.722;2022-11-15T15:06:23;3.78;;;3.40;;
26588;SDS011;14235;48.532;8.722;2022-11-15T15:08:49;3.75;;;3.35;;
26588;SDS011;14235;48.532;8.722;2022-11-15T15:11:18;2.72;;;2.53;;
26588;SDS011;14235;48.532;8.722;2022-11-15T15:13:47;2.55;;;2.42;;
26588;SDS011;14235;48.532;8.722;2022-11-15T15:16:13;3.63;;;2.97;;
26588;SDS011;14235;48.532;8.722;2022-11-15T15:18:38;5.60;;;3.17;;
26588;SDS011;14235;48.532;8.722;2022-11-15T15:21:04;4.68;;;2.97;;
26588;SDS011;14235;48.532;8.722;2022-11-15T15:23:44;5.95;;;3.40;;
26588;SDS011;14235;48.532;8.722;2022-11-15T15:26:09;4.00;;;3.10;;
26588;SDS011;14235;48.532;8.722;2022-11-15T15:28:35;4.47;;;3.33;;
26588;SDS011;14235;48.532;8.722;2022-11-15T15:31:02;5.97;;;3.35;;
26588;SDS011;14235;48.532;8.722;2022-11-15T15:33:27;5.63;;;3.25;;
26588;SDS011;14235;48.532;8.722;2022-11-15T15:35:53;3.55;;;3.20;;
26588;SDS011;14235;48.532;8.722;2022-11-15T15:38:19;3.30;;;3.00;;
26588;SDS011;14235;48.532;8.722;2022-11-15T15:40:44;7.63;;;3.58;;
26588;SDS011;14235;48.532;8.722;2022-11-15T15:43:10;5.53;;;3.22;;
26588;SDS011;14235;48.532;8.722;2022-11-15T15:45:36;3.50;;;3.20;;
26588;SDS011;14235;48.532;8.722;2022-11-15T15:48:04;4.43;;;3.47;;
26588;SDS011;14235;48.532;8.722;2022-11-15T15:50:32;5.70;;;3.63;;
26588;SDS011;14235;48.532;8.722;2022-11-15T15:53:00;3.90;;;3.50;;
26588;SDS011;14235;48.532;8.722;2022-11-15T15:55:27;5.00;;;3.78;;
26588;SDS011;14235;48.532;8.722;2022-11-15T15:57:53;4.82;;;3.33;;
26588;SDS011;14235;48.532;8.722;2022-11-15T16:00:19;5.20;;;3.28;;
26588;SDS011;14235;48.532;8.722;2022-11-15T16:02:48;3.88;;;3.25;;
26588;SDS011;14235;48.532;8.722;2022-11-15T16:05:16;3.85;;;3.55;;
26588;SDS011;14235;48.532;8.722;2022-11-15T16:07:42;4.85;;;4.30;;
26588;SDS011;14235;48.532;8.722;2022-11-15T16:10:30;7.82;;;5.72;;
26588;SDS011;14235;48.532;8.722;2022-11-15T16:12:56;10.10;;;7.97;;
26588;SDS011;14235;48.532;8.722;2022-11-15T16:15:23;12.00;;;7.47;;
26588;SDS011;14235;48.532;8.722;2022-11-15T16:17:51;7.07;;;6.38;;
26588;SDS011;14235;48.532;8.722;2022-11-15T16:23:01;6.72;;;6.05;;
26588;SDS011;14235;48.532;8.722;2022-11-15T16:25:28;7.28;;;6.57;;
26588;SDS011;14235;48.532;8.722;2022-11-15T16:27:53;11.98;;;9.68;;
26588;SDS011;14235;48.532;8.722;2022-11-15T16:30:20;16.23;;;11.27;;
26588;SDS011;14235;48.532;8.722;2022-11-15T16:32:47;10.60;;;8.93;;
26588;SDS011;14235;48.532;8.722;2022-11-15T16:35:13;15.55;;;10.82;;
26588;SDS011;14235;48.532;8.722;2022-11-15T16:37:40;16.40;;;12.23;;
26588;SDS011;14235;48.532;8.722;2022-11-15T16:40:12;20.80;;;16.23;;
26588;SDS011;14235;48.532;8.722;2022-11-15T16:42:47;20.10;;;16.27;;
26588;SDS011;14235;48.532;8.722;2022-11-15T16:45:12;14.25;;;11.48;;
26588;SDS011;14235;48.532;8.722;2022-11-15T16:47:38;12.57;;;11.27;;
26588;SDS011;14235;48.532;8.722;2022-11-15T16:50:04;19.90;;;15.10;;
26588;SDS011;14235;48.532;8.722;2022-11-15T16:52:30;12.23;;;10.57;;
26588;SDS011;14235;48.532;8.722;2022-11-15T16:54:56;8.93;;;7.70;;
26588;SDS011;14235;48.532;8.722;2022-11-15T16:57:21;9.07;;;8.27;;
26588;SDS011;14235;48.532;8.722;2022-11-15T16:59:47;7.32;;;5.47;;
26588;SDS011;14235;48.532;8.722;2022-11-15T17:02:12;6.10;;;5.45;;
26588;SDS011;14235;48.532;8.722;2022-11-15T17:04:39;5.45;;;4.85;;
26588;SDS011;14235;48.532;8.722;2022-11-15T17:07:04;5.15;;;4.57;;
26588;SDS011;14235;48.532;8.722;2022-11-15T17:09:30;6.55;;;4.90;;
26588;SDS011;14235;48.532;8.722;2022-11-15T17:11:57;7.32;;;5.07;;
26588;SDS011;14235;48.532;8.722;2022-11-15T17:14:22;6.13;;;5.60;;